sensor_id;sensor_type;location;lat;lon;timestamp;pressure;altitude;pressure_sealevel;temperature;humidity
61963;BME280;47927;42.646;23.096;2023-04-28T00:01:15;92293.19;;;6.19;43.70
61963;BME280;47927;42.646;23.096;2023-04-28T00:03:41;92292.63;;;6.26;43.54
61963;BME280;47927;42.646;23.096;2023-04-28T00:06:06;92297.13;;;5.76;44.24
61963;BME280;47927;42.646;23.096;2023-04-28T00:08:32;92297.22;;;6.04;44.09
61963;BME280;47927;42.646;23.096;2023-04-28T00:10:58;92279.00;;;6.01;43.75
61963;BME280;47927;42.646;23.096;2023-04-28T00:13:23;92297.34;;;5.96;44.14
61963;BME280;47927;42.646;23.096;2023-04-28T00:15:49;92303.06;;;6.01;44.27
61963;BME280;47927;42.646;23.096;2023-04-28T00:18:18;92298.44;;;5.70;44.96
61963;BME280;47927;42.646;23.096;2023-04-28T00:20:43;92301.53;;;5.76;44.91
61963;BME280;47927;42.646;23.096;2023-04-28T00:23:09;92295.97;;;5.24;46.09
61963;BME280;47927;42.646;23.096;2023-04-28T00:25:34;92277.78;;;5.21;45.68
61963;BME280;47927;42.646;23.096;2023-04-28T00:28:00;92286.50;;;5.29;46.15
61963;BME280;47927;42.646;23.096;2023-04-28T00:30:26;92294.66;;;5.18;46.53
61963;BME280;47927;42.646;23.096;2023-04-28T00:32:51;92294.97;;;5.29;45.97
61963;BME280;47927;42.646;23.096;2023-04-28T00:35:17;92292.19;;;5.34;46.16
61963;BME280;47927;42.646;23.096;2023-04-28T00:37:43;92303.81;;;5.28;45.84
61963;BME280;47927;42.646;23.096;2023-04-28T00:40:09;92298.44;;;5.09;46.10
61963;BME280;47927;42.646;23.096;2023-04-28T00:42:35;92300.78;;;5.01;46.47
61963;BME280;47927;42.646;23.096;2023-04-28T00:45:00;92308.44;;;5.10;45.83
61963;BME280;47927;42.646;23.096;2023-04-28T00:47:34;92294.91;;;4.68;46.18
61963;BME280;47927;42.646;23.096;2023-04-28T00:50:03;92294.16;;;4.67;46.45
61963;BME280;47927;42.646;23.096;2023-04-28T00:52:30;92297.09;;;4.90;45.92
61963;BME280;47927;42.646;23.096;2023-04-28T00:54:56;92285.94;;;4.53;46.00
61963;BME280;47927;42.646;23.096;2023-04-28T00:57:22;92277.19;;;4.45;46.68
61963;BME280;47927;42.646;23.096;2023-04-28T00:59:48;92304.69;;;4.74;46.53
61963;BME280;47927;42.646;23.096;2023-04-28T01:02:14;92297.00;;;4.99;45.70
61963;BME280;47927;42.646;23.096;2023-04-28T01:04:46;92297.88;;;4.91;45.82
61963;BME280;47927;42.646;23.096;2023-04-28T01:07:13;92303.34;;;5.01;45.65
61963;BME280;47927;42.646;23.096;2023-04-28T01:09:39;92301.03;;;5.09;45.57
61963;BME280;47927;42.646;23.096;2023-04-28T01:12:06;92305.66;;;5.40;44.77
61963;BME280;47927;42.646;23.096;2023-04-28T01:14:40;92309.16;;;4.98;45.27
61963;BME280;47927;42.646;23.096;2023-04-28T01:17:07;92316.75;;;5.40;44.49
61963;BME280;47927;42.646;23.096;2023-04-28T01:19:32;92313.31;;;5.24;44.90
61963;BME280;47927;42.646;23.096;2023-04-28T01:21:58;92310.81;;;5.40;44.93
61963;BME280;47927;42.646;23.096;2023-04-28T01:24:25;92306.94;;;5.09;45.33
61963;BME280;47927;42.646;23.096;2023-04-28T01:26:50;92306.88;;;4.85;46.41
61963;BME280;47927;42.646;23.096;2023-04-28T01:29:16;92277.84;;;4.42;46.35
61963;BME280;47927;42.646;23.096;2023-04-28T01:31:41;92306.91;;;4.97;46.26
61963;BME280;47927;42.646;23.096;2023-04-28T01:34:07;92307.94;;;5.41;45.02
61963;BME280;47927;42.646;23.096;2023-04-28T01:36:34;92310.63;;;5.33;44.89
61963;BME280;47927;42.646;23.096;2023-04-28T01:39:00;92317.50;;;5.41;45.03
61963;BME280;47927;42.646;23.096;2023-04-28T01:41:25;92306.09;;;5.30;45.01
61963;BME280;47927;42.646;23.096;2023-04-28T01:43:51;92315.53;;;5.01;45.35
61963;BME280;47927;42.646;23.096;2023-04-28T01:46:16;92315.53;;;5.38;44.94
61963;BME280;47927;42.646;23.096;2023-04-28T01:48:42;92316.63;;;5.61;44.49
61963;BME280;47927;42.646;23.096;2023-04-28T01:51:08;92315.78;;;5.69;44.30
61963;BME280;47927;42.646;23.096;2023-04-28T01:53:33;92322.44;;;5.58;44.31
61963;BME280;47927;42.646;23.096;2023-04-28T01:55:59;92325.56;;;5.52;44.56
61963;BME280;47927;42.646;23.096;2023-04-28T01:58:25;92322.75;;;5.20;45.18
61963;BME280;47927;42.646;23.096;2023-04-28T02:00:50;92317.72;;;4.78;46.42
61963;BME280;47927;42.646;23.096;2023-04-28T02:03:18;92321.00;;;4.99;45.79
61963;BME280;47927;42.646;23.096;2023-04-28T02:05:43;92270.16;;;4.67;45.43
61963;BME280;47927;42.646;23.096;2023-04-28T02:08:09;92321.22;;;4.94;45.85
61963;BME280;47927;42.646;23.096;2023-04-28T02:10:34;92324.47;;;5.03;45.74
61963;BME280;47927;42.646;23.096;2023-04-28T02:13:00;92326.78;;;4.96;46.13
61963;BME280;47927;42.646;23.096;2023-04-28T02:15:25;92327.03;;;4.58;46.93
61963;BME280;47927;42.646;23.096;2023-04-28T02:17:52;92323.56;;;4.54;46.72
61963;BME280;47927;42.646;23.096;2023-04-28T02:20:17;92326.16;;;4.33;47.32
61963;BME280;47927;42.646;23.096;2023-04-28T02:22:43;92331.75;;;4.35;47.41
61963;BME280;47927;42.646;23.096;2023-04-28T02:25:09;92341.44;;;4.38;47.49
61963;BME280;47927;42.646;23.096;2023-04-28T02:27:36;92337.56;;;4.32;47.80
61963;BME280;47927;42.646;23.096;2023-04-28T02:30:06;92338.94;;;4.29;48.07
61963;BME280;47927;42.646;23.096;2023-04-28T02:32:32;92328.63;;;4.08;48.17
61963;BME280;47927;42.646;23.096;2023-04-28T02:34:57;92334.06;;;4.07;48.65
61963;BME280;47927;42.646;23.096;2023-04-28T02:37:24;92333.16;;;4.11;48.48
61963;BME280;47927;42.646;23.096;2023-04-28T02:39:50;92345.00;;;3.83;49.45
61963;BME280;47927;42.646;23.096;2023-04-28T02:42:15;92348.16;;;3.88;49.26
61963;BME280;47927;42.646;23.096;2023-04-28T02:44:41;92346.16;;;3.64;49.78
61963;BME280;47927;42.646;23.096;2023-04-28T02:47:06;92347.25;;;3.63;49.85
61963;BME280;47927;42.646;23.096;2023-04-28T02:49:32;92346.69;;;3.79;49.49
61963;BME280;47927;42.646;23.096;2023-04-28T02:51:57;92352.34;;;3.72;49.18
61963;BME280;47927;42.646;23.096;2023-04-28T02:54:23;92358.22;;;3.81;49.34
61963;BME280;47927;42.646;23.096;2023-04-28T02:56:53;92358.25;;;3.73;49.36
61963;BME280;47927;42.646;23.096;2023-04-28T02:59:19;92360.69;;;3.69;49.30
61963;BME280;47927;42.646;23.096;2023-04-28T03:01:45;92365.97;;;3.73;49.59
61963;BME280;47927;42.646;23.096;2023-04-28T03:04:11;92371.94;;;3.64;49.80
61963;BME280;47927;42.646;23.096;2023-04-28T03:06:36;92355.09;;;3.67;49.71
61963;BME280;47927;42.646;23.096;2023-04-28T03:09:03;92361.53;;;3.82;49.56
61963;BME280;47927;42.646;23.096;2023-04-28T03:11:28;92364.03;;;3.70;49.50
61963;BME280;47927;42.646;23.096;2023-04-28T03:13:54;92364.84;;;3.53;50.22
61963;BME280;47927;42.646;23.096;2023-04-28T03:16:20;92377.91;;;3.48;50.25
61963;BME280;47927;42.646;23.096;2023-04-28T03:18:45;92373.78;;;3.55;49.80
61963;BME280;47927;42.646;23.096;2023-04-28T03:21:11;92371.31;;;3.68;49.34
61963;BME280;47927;42.646;23.096;2023-04-28T03:23:37;92380.09;;;3.67;49.54
61963;BME280;47927;42.646;23.096;2023-04-28T03:26:03;92378.91;;;3.64;49.60
61963;BME280;47927;42.646;23.096;2023-04-28T03:28:28;92361.34;;;3.19;50.16
61963;BME280;47927;42.646;23.096;2023-04-28T03:30:54;92388.13;;;3.27;51.31
61963;BME280;47927;42.646;23.096;2023-04-28T03:33:19;92394.94;;;3.31;51.20
61963;BME280;47927;42.646;23.096;2023-04-28T03:35:45;92400.53;;;3.33;50.69
61963;BME280;47927;42.646;23.096;2023-04-28T03:38:11;92402.97;;;3.68;49.71
61963;BME280;47927;42.646;23.096;2023-04-28T03:40:37;92397.94;;;3.72;49.74
61963;BME280;47927;42.646;23.096;2023-04-28T03:43:11;92406.22;;;3.86;49.19
61963;BME280;47927;42.646;23.096;2023-04-28T03:46:03;92410.22;;;4.04;49.00
61963;BME280;47927;42.646;23.096;2023-04-28T03:48:29;92416.53;;;4.16;48.81
61963;BME280;47927;42.646;23.096;2023-04-28T03:50:55;92419.69;;;3.92;49.10
61963;BME280;47927;42.646;23.096;2023-04-28T03:53:22;92416.84;;;5.31;47.00
61963;BME280;47927;42.646;23.096;2023-04-28T03:55:47;92410.41;;;7.16;43.30
61963;BME280;47927;42.646;23.096;2023-04-28T03:58:13;92411.41;;;8.74;39.84
61963;BME280;47927;42.646;23.096;2023-04-28T04:00:38;92429.34;;;9.83;37.38
61963;BME280;47927;42.646;23.096;2023-04-28T04:03:04;92421.75;;;11.04;35.19
61963;BME280;47927;42.646;23.096;2023-04-28T04:05:30;92419.34;;;12.00;33.96
61963;BME280;47927;42.646;23.096;2023-04-28T04:07:55;92418.69;;;12.65;32.42
61963;BME280;47927;42.646;23.096;2023-04-28T04:10:22;92420.50;;;13.41;30.97
61963;BME280;47927;42.646;23.096;2023-04-28T04:12:48;92425.47;;;14.07;30.03
61963;BME280;47927;42.646;23.096;2023-04-28T04:15:13;92424.34;;;14.55;29.41
61963;BME280;47927;42.646;23.096;2023-04-28T04:17:41;92431.31;;;15.04;28.48
61963;BME280;47927;42.646;23.096;2023-04-28T04:20:07;92434.75;;;15.86;27.51
61963;BME280;47927;42.646;23.096;2023-04-28T04:22:33;92430.91;;;15.98;26.88
61963;BME280;47927;42.646;23.096;2023-04-28T04:24:58;92431.56;;;16.57;25.46
61963;BME280;47927;42.646;23.096;2023-04-28T04:27:24;92430.72;;;17.05;25.80
61963;BME280;47927;42.646;23.096;2023-04-28T04:29:50;92425.19;;;16.96;25.59
61963;BME280;47927;42.646;23.096;2023-04-28T04:32:16;92425.44;;;16.26;26.41
61963;BME280;47927;42.646;23.096;2023-04-28T04:34:41;92437.53;;;15.50;26.84
61963;BME280;47927;42.646;23.096;2023-04-28T04:37:08;92416.06;;;14.71;28.06
61963;BME280;47927;42.646;23.096;2023-04-28T04:39:38;92437.06;;;14.64;28.74
61963;BME280;47927;42.646;23.096;2023-04-28T04:42:04;92435.19;;;14.64;28.42
61963;BME280;47927;42.646;23.096;2023-04-28T04:44:45;92444.44;;;15.04;28.29
61963;BME280;47927;42.646;23.096;2023-04-28T04:47:20;92435.69;;;15.47;27.43
61963;BME280;47927;42.646;23.096;2023-04-28T04:49:47;92453.38;;;16.02;26.09
61963;BME280;47927;42.646;23.096;2023-04-28T04:52:14;92430.41;;;16.58;25.94
61963;BME280;47927;42.646;23.096;2023-04-28T04:54:40;92441.28;;;17.36;25.38
61963;BME280;47927;42.646;23.096;2023-04-28T04:57:05;92461.66;;;17.93;23.44
61963;BME280;47927;42.646;23.096;2023-04-28T04:59:54;92452.09;;;19.01;22.27
61963;BME280;47927;42.646;23.096;2023-04-28T05:02:20;92459.47;;;19.09;21.84
61963;BME280;47927;42.646;23.096;2023-04-28T05:04:45;92465.25;;;20.99;20.67
61963;BME280;47927;42.646;23.096;2023-04-28T05:07:13;92462.69;;;22.94;17.88
61963;BME280;47927;42.646;23.096;2023-04-28T05:09:39;92469.94;;;23.50;17.52
61963;BME280;47927;42.646;23.096;2023-04-28T05:12:05;92461.81;;;25.06;16.15
61963;BME280;47927;42.646;23.096;2023-04-28T05:14:31;92471.44;;;25.68;15.65
61963;BME280;47927;42.646;23.096;2023-04-28T05:16:57;92481.78;;;25.84;15.24
61963;BME280;47927;42.646;23.096;2023-04-28T05:19:25;92476.09;;;26.52;14.70
61963;BME280;47927;42.646;23.096;2023-04-28T05:21:50;92474.91;;;26.44;15.02
61963;BME280;47927;42.646;23.096;2023-04-28T05:24:22;92473.47;;;27.39;14.60
61963;BME280;47927;42.646;23.096;2023-04-28T05:26:49;92476.94;;;26.58;14.54
61963;BME280;47927;42.646;23.096;2023-04-28T05:29:17;92468.25;;;27.21;14.54
61963;BME280;47927;42.646;23.096;2023-04-28T05:31:42;92470.47;;;28.21;13.39
61963;BME280;47927;42.646;23.096;2023-04-28T05:34:08;92471.00;;;29.10;12.22
61963;BME280;47927;42.646;23.096;2023-04-28T05:36:34;92479.09;;;29.36;12.12
61963;BME280;47927;42.646;23.096;2023-04-28T05:39:00;92483.94;;;29.58;12.19
61963;BME280;47927;42.646;23.096;2023-04-28T05:41:26;92477.94;;;30.96;11.20
61963;BME280;47927;42.646;23.096;2023-04-28T05:43:53;92474.38;;;31.16;10.74
61963;BME280;47927;42.646;23.096;2023-04-28T05:46:19;92479.47;;;31.85;10.30
61963;BME280;47927;42.646;23.096;2023-04-28T05:48:44;92483.25;;;30.79;11.27
61963;BME280;47927;42.646;23.096;2023-04-28T05:51:10;92480.25;;;31.20;10.77
61963;BME280;47927;42.646;23.096;2023-04-28T05:53:36;92480.94;;;31.80;10.61
61963;BME280;47927;42.646;23.096;2023-04-28T05:56:02;92479.22;;;31.06;10.45
61963;BME280;47927;42.646;23.096;2023-04-28T05:58:28;92494.97;;;32.01;10.50
61963;BME280;47927;42.646;23.096;2023-04-28T06:00:54;92482.09;;;31.45;10.42
61963;BME280;47927;42.646;23.096;2023-04-28T06:03:20;92487.59;;;31.90;10.15
61963;BME280;47927;42.646;23.096;2023-04-28T06:05:46;92481.22;;;32.44;9.81
61963;BME280;47927;42.646;23.096;2023-04-28T06:08:13;92491.25;;;33.52;9.50
61963;BME280;47927;42.646;23.096;2023-04-28T06:10:38;92487.97;;;34.48;9.01
61963;BME280;47927;42.646;23.096;2023-04-28T06:13:04;92489.50;;;33.61;9.33
61963;BME280;47927;42.646;23.096;2023-04-28T06:15:31;92487.91;;;33.35;10.19
61963;BME280;47927;42.646;23.096;2023-04-28T06:17:57;92482.88;;;32.92;10.48
61963;BME280;47927;42.646;23.096;2023-04-28T06:20:23;92481.66;;;31.69;10.93
61963;BME280;47927;42.646;23.096;2023-04-28T06:22:49;92485.88;;;32.38;10.34
61963;BME280;47927;42.646;23.096;2023-04-28T06:25:16;92478.72;;;33.96;8.53
61963;BME280;47927;42.646;23.096;2023-04-28T06:27:44;92491.84;;;35.07;9.20
61963;BME280;47927;42.646;23.096;2023-04-28T06:30:16;92497.72;;;35.55;8.23
61963;BME280;47927;42.646;23.096;2023-04-28T06:32:43;92490.97;;;36.32;7.67
61963;BME280;47927;42.646;23.096;2023-04-28T06:35:08;92493.47;;;36.30;7.31
61963;BME280;47927;42.646;23.096;2023-04-28T06:37:34;92492.28;;;34.87;7.92
61963;BME280;47927;42.646;23.096;2023-04-28T06:40:00;92483.28;;;35.66;8.23
61963;BME280;47927;42.646;23.096;2023-04-28T06:42:26;92490.31;;;35.12;7.58
61963;BME280;47927;42.646;23.096;2023-04-28T06:45:03;92497.47;;;35.53;8.43
61963;BME280;47927;42.646;23.096;2023-04-28T06:47:28;92490.00;;;35.97;7.28
61963;BME280;47927;42.646;23.096;2023-04-28T06:49:54;92488.25;;;35.99;7.66
61963;BME280;47927;42.646;23.096;2023-04-28T06:52:19;92497.47;;;34.85;7.96
61963;BME280;47927;42.646;23.096;2023-04-28T06:54:46;92500.91;;;34.85;8.13
61963;BME280;47927;42.646;23.096;2023-04-28T06:57:13;92499.78;;;35.24;7.41
61963;BME280;47927;42.646;23.096;2023-04-28T06:59:38;92503.56;;;34.91;7.89
61963;BME280;47927;42.646;23.096;2023-04-28T07:02:04;92492.47;;;33.98;8.28
61963;BME280;47927;42.646;23.096;2023-04-28T07:04:30;92485.44;;;33.37;8.78
61963;BME280;47927;42.646;23.096;2023-04-28T07:06:55;92491.16;;;33.17;9.13
61963;BME280;47927;42.646;23.096;2023-04-28T07:09:21;92496.56;;;34.16;8.65
61963;BME280;47927;42.646;23.096;2023-04-28T07:11:47;92494.81;;;34.55;8.05
61963;BME280;47927;42.646;23.096;2023-04-28T07:14:12;92493.44;;;35.41;7.69
61963;BME280;47927;42.646;23.096;2023-04-28T07:16:38;92496.34;;;35.43;7.81
61963;BME280;47927;42.646;23.096;2023-04-28T07:19:03;92486.44;;;35.07;7.33
61963;BME280;47927;42.646;23.096;2023-04-28T07:21:29;92494.19;;;34.92;7.47
61963;BME280;47927;42.646;23.096;2023-04-28T07:23:54;92491.75;;;34.88;7.94
61963;BME280;47927;42.646;23.096;2023-04-28T07:26:23;92492.72;;;35.15;7.42
61963;BME280;47927;42.646;23.096;2023-04-28T07:28:48;92482.81;;;35.99;7.55
61963;BME280;47927;42.646;23.096;2023-04-28T07:31:14;92482.44;;;35.33;7.73
61963;BME280;47927;42.646;23.096;2023-04-28T07:33:40;92488.66;;;34.54;7.67
61963;BME280;47927;42.646;23.096;2023-04-28T07:36:06;92491.38;;;34.79;8.12
61963;BME280;47927;42.646;23.096;2023-04-28T07:38:34;92489.41;;;34.55;8.71
61963;BME280;47927;42.646;23.096;2023-04-28T07:41:02;92471.22;;;33.31;8.99
61963;BME280;47927;42.646;23.096;2023-04-28T07:43:28;92484.84;;;33.61;8.84
61963;BME280;47927;42.646;23.096;2023-04-28T07:45:54;92481.38;;;34.68;8.28
61963;BME280;47927;42.646;23.096;2023-04-28T07:48:20;92482.72;;;34.56;8.60
61963;BME280;47927;42.646;23.096;2023-04-28T07:50:46;92482.59;;;33.71;8.46
61963;BME280;47927;42.646;23.096;2023-04-28T07:53:11;92480.97;;;33.92;8.65
61963;BME280;47927;42.646;23.096;2023-04-28T07:55:37;92491.66;;;34.15;8.26
61963;BME280;47927;42.646;23.096;2023-04-28T07:58:03;92481.44;;;33.49;8.69
61963;BME280;47927;42.646;23.096;2023-04-28T08:00:28;92483.00;;;34.22;8.42
61963;BME280;47927;42.646;23.096;2023-04-28T08:02:54;92486.75;;;34.43;8.06
61963;BME280;47927;42.646;23.096;2023-04-28T08:05:21;92482.03;;;34.19;8.02
61963;BME280;47927;42.646;23.096;2023-04-28T08:07:46;92479.25;;;33.53;8.90
61963;BME280;47927;42.646;23.096;2023-04-28T08:10:16;92479.25;;;33.53;8.80
61963;BME280;47927;42.646;23.096;2023-04-28T08:12:42;92481.78;;;33.81;8.72
61963;BME280;47927;42.646;23.096;2023-04-28T08:15:10;92477.63;;;34.46;8.21
61963;BME280;47927;42.646;23.096;2023-04-28T08:17:36;92486.81;;;33.61;8.34
61963;BME280;47927;42.646;23.096;2023-04-28T08:20:02;92480.78;;;31.24;10.83
61963;BME280;47927;42.646;23.096;2023-04-28T08:22:28;92481.97;;;32.11;10.54
61963;BME280;47927;42.646;23.096;2023-04-28T08:24:54;92484.16;;;32.29;9.56
61963;BME280;47927;42.646;23.096;2023-04-28T08:27:19;92488.81;;;32.23;9.28
61963;BME280;47927;42.646;23.096;2023-04-28T08:29:45;92487.78;;;31.04;10.51
61963;BME280;47927;42.646;23.096;2023-04-28T08:32:10;92477.50;;;31.85;9.34
61963;BME280;47927;42.646;23.096;2023-04-28T08:34:36;92474.84;;;32.58;9.16
61963;BME280;47927;42.646;23.096;2023-04-28T08:37:01;92481.72;;;32.48;10.02
61963;BME280;47927;42.646;23.096;2023-04-28T08:39:27;92478.97;;;30.61;11.18
61963;BME280;47927;42.646;23.096;2023-04-28T08:41:53;92480.81;;;31.35;9.59
61963;BME280;47927;42.646;23.096;2023-04-28T08:44:18;92477.56;;;32.13;9.05
61963;BME280;47927;42.646;23.096;2023-04-28T08:46:45;92478.94;;;31.64;9.73
61963;BME280;47927;42.646;23.096;2023-04-28T08:49:15;92473.63;;;32.03;9.04
61963;BME280;47927;42.646;23.096;2023-04-28T08:51:59;92467.25;;;32.29;9.69
61963;BME280;47927;42.646;23.096;2023-04-28T08:54:30;92471.38;;;31.02;9.46
61963;BME280;47927;42.646;23.096;2023-04-28T08:56:56;92461.22;;;28.22;11.36
61963;BME280;47927;42.646;23.096;2023-04-28T08:59:22;92440.97;;;27.17;13.01
61963;BME280;47927;42.646;23.096;2023-04-28T09:01:48;92464.34;;;29.26;11.34
61963;BME280;47927;42.646;23.096;2023-04-28T09:04:18;92473.47;;;30.12;10.52
61963;BME280;47927;42.646;23.096;2023-04-28T09:06:44;92474.56;;;30.63;9.33
61963;BME280;47927;42.646;23.096;2023-04-28T09:11:55;92453.00;;;31.72;9.33
61963;BME280;47927;42.646;23.096;2023-04-28T09:14:22;92459.63;;;30.94;10.44
61963;BME280;47927;42.646;23.096;2023-04-28T09:16:48;92454.44;;;30.85;10.33
61963;BME280;47927;42.646;23.096;2023-04-28T09:19:14;92451.63;;;31.22;10.05
61963;BME280;47927;42.646;23.096;2023-04-28T09:21:48;92454.44;;;31.50;9.40
61963;BME280;47927;42.646;23.096;2023-04-28T09:24:31;92456.94;;;31.82;9.15
61963;BME280;47927;42.646;23.096;2023-04-28T09:26:58;92437.91;;;31.09;9.93
61963;BME280;47927;42.646;23.096;2023-04-28T09:29:24;92439.66;;;30.69;9.67
61963;BME280;47927;42.646;23.096;2023-04-28T09:31:50;92445.66;;;30.47;9.99
61963;BME280;47927;42.646;23.096;2023-04-28T09:34:15;92430.84;;;30.26;10.37
61963;BME280;47927;42.646;23.096;2023-04-28T09:36:41;92440.41;;;30.01;10.29
61963;BME280;47927;42.646;23.096;2023-04-28T09:39:07;92434.88;;;29.78;11.64
61963;BME280;47927;42.646;23.096;2023-04-28T09:41:42;92433.13;;;29.28;10.46
61963;BME280;47927;42.646;23.096;2023-04-28T09:44:16;92437.19;;;29.65;9.65
61963;BME280;47927;42.646;23.096;2023-04-28T09:46:46;92436.34;;;30.11;9.55
61963;BME280;47927;42.646;23.096;2023-04-28T09:49:12;92438.53;;;29.55;10.17
61963;BME280;47927;42.646;23.096;2023-04-28T09:51:38;92424.22;;;29.37;10.12
61963;BME280;47927;42.646;23.096;2023-04-28T09:54:04;92429.38;;;29.67;9.53
61963;BME280;47927;42.646;23.096;2023-04-28T09:56:32;92421.19;;;29.03;10.83
61963;BME280;47927;42.646;23.096;2023-04-28T09:58:58;92405.88;;;28.69;10.69
61963;BME280;47927;42.646;23.096;2023-04-28T10:01:26;92419.94;;;28.63;10.15
61963;BME280;47927;42.646;23.096;2023-04-28T10:03:52;92403.53;;;27.32;13.17
61963;BME280;47927;42.646;23.096;2023-04-28T10:06:18;92407.75;;;26.85;13.09
61963;BME280;47927;42.646;23.096;2023-04-28T10:08:44;92409.19;;;26.13;14.90
61963;BME280;47927;42.646;23.096;2023-04-28T10:11:13;92404.94;;;25.98;13.20
61963;BME280;47927;42.646;23.096;2023-04-28T10:13:41;92402.06;;;26.68;13.00
61963;BME280;47927;42.646;23.096;2023-04-28T10:16:09;92398.91;;;27.17;12.58
61963;BME280;47927;42.646;23.096;2023-04-28T10:18:35;92399.13;;;27.29;12.98
61963;BME280;47927;42.646;23.096;2023-04-28T10:21:02;92401.88;;;27.34;14.44
61963;BME280;47927;42.646;23.096;2023-04-28T10:29:24;92398.28;;;24.95;16.04
61963;BME280;47927;42.646;23.096;2023-04-28T10:32:22;92379.19;;;24.60;15.43
61963;BME280;47927;42.646;23.096;2023-04-28T10:34:50;92376.53;;;24.69;14.20
61963;BME280;47927;42.646;23.096;2023-04-28T10:37:16;92378.88;;;25.04;14.78
61963;BME280;47927;42.646;23.096;2023-04-28T10:42:54;92373.13;;;25.85;13.55
61963;BME280;47927;42.646;23.096;2023-04-28T10:56:18;92355.91;;;25.07;14.28
61963;BME280;47927;42.646;23.096;2023-04-28T10:58:45;92362.31;;;24.91;14.39
61963;BME280;47927;42.646;23.096;2023-04-28T11:06:33;92351.66;;;24.63;13.17
61963;BME280;47927;42.646;23.096;2023-04-28T11:21:55;92336.84;;;22.79;15.48
61963;BME280;47927;42.646;23.096;2023-04-28T11:24:22;92333.13;;;22.76;15.45
61963;BME280;47927;42.646;23.096;2023-04-28T11:26:50;92333.44;;;22.78;16.79
61963;BME280;47927;42.646;23.096;2023-04-28T11:29:16;92310.72;;;22.55;15.06
61963;BME280;47927;42.646;23.096;2023-04-28T11:31:49;92328.16;;;22.43;16.23
61963;BME280;47927;42.646;23.096;2023-04-28T11:34:19;92321.59;;;22.70;15.37
61963;BME280;47927;42.646;23.096;2023-04-28T11:36:46;92315.94;;;22.90;16.29
61963;BME280;47927;42.646;23.096;2023-04-28T11:39:12;92318.25;;;22.79;16.48
61963;BME280;47927;42.646;23.096;2023-04-28T11:41:39;92322.13;;;23.00;16.10
61963;BME280;47927;42.646;23.096;2023-04-28T11:44:10;92310.63;;;22.90;16.02
61963;BME280;47927;42.646;23.096;2023-04-28T11:46:43;92307.31;;;22.20;16.93
61963;BME280;47927;42.646;23.096;2023-04-28T11:49:09;92315.34;;;22.29;15.92
61963;BME280;47927;42.646;23.096;2023-04-28T11:51:37;92316.34;;;21.97;15.71
61963;BME280;47927;42.646;23.096;2023-04-28T11:54:06;92310.03;;;21.43;15.79
61963;BME280;47927;42.646;23.096;2023-04-28T11:56:36;92306.81;;;21.74;16.51
61963;BME280;47927;42.646;23.096;2023-04-28T11:59:05;92300.28;;;21.66;16.74
61963;BME280;47927;42.646;23.096;2023-04-28T12:01:32;92306.47;;;21.08;16.49
61963;BME280;47927;42.646;23.096;2023-04-28T12:03:59;92296.03;;;20.75;16.83
61963;BME280;47927;42.646;23.096;2023-04-28T12:06:24;92288.88;;;20.59;18.43
61963;BME280;47927;42.646;23.096;2023-04-28T12:08:50;92299.41;;;20.01;18.14
61963;BME280;47927;42.646;23.096;2023-04-28T12:11:17;92296.72;;;20.63;16.88
61963;BME280;47927;42.646;23.096;2023-04-28T12:13:43;92291.69;;;20.81;18.14
61963;BME280;47927;42.646;23.096;2023-04-28T12:16:08;92289.56;;;20.76;17.36
61963;BME280;47927;42.646;23.096;2023-04-28T12:18:37;92287.88;;;20.24;16.54
61963;BME280;47927;42.646;23.096;2023-04-28T12:21:03;92287.44;;;19.80;17.71
61963;BME280;47927;42.646;23.096;2023-04-28T12:23:34;92289.94;;;19.34;19.16
61963;BME280;47927;42.646;23.096;2023-04-28T12:26:01;92293.50;;;19.44;19.21
61963;BME280;47927;42.646;23.096;2023-04-28T12:28:37;92297.13;;;19.50;19.35
61963;BME280;47927;42.646;23.096;2023-04-28T12:31:07;92282.97;;;19.93;18.31
61963;BME280;47927;42.646;23.096;2023-04-28T12:33:34;92281.06;;;19.94;18.17
61963;BME280;47927;42.646;23.096;2023-04-28T12:36:04;92291.16;;;19.30;19.11
61963;BME280;47927;42.646;23.096;2023-04-28T12:38:32;92282.09;;;18.95;19.50
61963;BME280;47927;42.646;23.096;2023-04-28T12:40:58;92275.56;;;19.19;19.89
61963;BME280;47927;42.646;23.096;2023-04-28T12:43:24;92279.41;;;18.98;19.56
61963;BME280;47927;42.646;23.096;2023-04-28T12:45:54;92276.25;;;19.03;19.89
61963;BME280;47927;42.646;23.096;2023-04-28T12:48:21;92275.31;;;19.13;18.54
61963;BME280;47927;42.646;23.096;2023-04-28T12:50:49;92272.59;;;19.17;19.22
61963;BME280;47927;42.646;23.096;2023-04-28T12:53:15;92269.66;;;18.95;18.57
61963;BME280;47927;42.646;23.096;2023-04-28T12:55:41;92271.66;;;19.07;19.64
61963;BME280;47927;42.646;23.096;2023-04-28T12:58:06;92271.22;;;18.93;18.62
61963;BME280;47927;42.646;23.096;2023-04-28T13:00:32;92262.59;;;18.29;20.73
61963;BME280;47927;42.646;23.096;2023-04-28T13:02:57;92264.09;;;18.50;20.18
61963;BME280;47927;42.646;23.096;2023-04-28T13:05:23;92215.53;;;18.67;19.21
61963;BME280;47927;42.646;23.096;2023-04-28T13:07:49;92263.78;;;18.87;19.06
61963;BME280;47927;42.646;23.096;2023-04-28T13:10:15;92263.63;;;18.55;19.52
61963;BME280;47927;42.646;23.096;2023-04-28T13:12:42;92254.44;;;19.35;17.76
61963;BME280;47927;42.646;23.096;2023-04-28T13:15:08;92257.09;;;19.19;18.19
61963;BME280;47927;42.646;23.096;2023-04-28T13:17:34;92254.63;;;18.72;19.64
61963;BME280;47927;42.646;23.096;2023-04-28T13:19:59;92254.13;;;18.81;19.49
61963;BME280;47927;42.646;23.096;2023-04-28T13:22:27;92261.03;;;18.75;19.98
61963;BME280;47927;42.646;23.096;2023-04-28T13:24:52;92249.16;;;18.63;18.70
61963;BME280;47927;42.646;23.096;2023-04-28T13:27:18;92253.63;;;18.66;20.39
61963;BME280;47927;42.646;23.096;2023-04-28T13:29:44;92246.31;;;18.54;20.15
61963;BME280;47927;42.646;23.096;2023-04-28T13:32:09;92249.56;;;18.61;19.75
61963;BME280;47927;42.646;23.096;2023-04-28T13:34:35;92249.91;;;18.43;19.93